sensor_id;sensor_type;location;lat;lon;timestamp;pressure;altitude;pressure_sealevel;temperature
18161;BMP280;9205;52.032;4.314;2022-08-21T00:01:34;101672.69;;;19.92
18161;BMP280;9205;52.032;4.314;2022-08-21T00:04:05;101663.34;;;19.89
18161;BMP280;9205;52.032;4.314;2022-08-21T00:06:35;101668.66;;;19.86
18161;BMP280;9205;52.032;4.314;2022-08-21T00:09:12;101670.34;;;19.87
18161;BMP280;9205;52.032;4.314;2022-08-21T00:11:40;101663.63;;;19.83
18161;BMP280;9205;52.032;4.314;2022-08-21T00:14:09;101664.53;;;19.82
18161;BMP280;9205;52.032;4.314;2022-08-21T00:16:38;101657.69;;;19.81
18161;BMP280;9205;52.032;4.314;2022-08-21T00:19:07;101659.47;;;19.81
18161;BMP280;9205;52.032;4.314;2022-08-21T00:21:36;101654.50;;;19.76
18161;BMP280;9205;52.032;4.314;2022-08-21T00:24:04;101657.94;;;19.77
18161;BMP280;9205;52.032;4.314;2022-08-21T00:26:32;101653.75;;;19.74
18161;BMP280;9205;52.032;4.314;2022-08-21T00:28:59;101658.88;;;19.74
18161;BMP280;9205;52.032;4.314;2022-08-21T00:31:26;101654.63;;;19.73
18161;BMP280;9205;52.032;4.314;2022-08-21T00:33:54;101653.00;;;19.72
18161;BMP280;9205;52.032;4.314;2022-08-21T00:36:21;101643.72;;;19.68
18161;BMP280;9205;52.032;4.314;2022-08-21T00:38:49;101645.25;;;19.72
18161;BMP280;9205;52.032;4.314;2022-08-21T00:41:17;101647.97;;;19.69
18161;BMP280;9205;52.032;4.314;2022-08-21T00:43:44;101651.31;;;19.71
18161;BMP280;9205;52.032;4.314;2022-08-21T00:46:11;101653.03;;;19.71
18161;BMP280;9205;52.032;4.314;2022-08-21T00:48:39;101652.22;;;19.70
18161;BMP280;9205;52.032;4.314;2022-08-21T00:51:11;101642.94;;;19.66
18161;BMP280;9205;52.032;4.314;2022-08-21T00:53:43;101650.53;;;19.69
18161;BMP280;9205;52.032;4.314;2022-08-21T00:56:13;101647.34;;;19.65
18161;BMP280;9205;52.032;4.314;2022-08-21T00:58:42;101643.78;;;19.67
18161;BMP280;9205;52.032;4.314;2022-08-21T01:01:09;101640.09;;;19.72
18161;BMP280;9205;52.032;4.314;2022-08-21T01:03:37;101631.53;;;19.72
18161;BMP280;9205;52.032;4.314;2022-08-21T01:06:06;101636.53;;;19.75
18161;BMP280;9205;52.032;4.314;2022-08-21T01:08:35;101629.94;;;19.69
18161;BMP280;9205;52.032;4.314;2022-08-21T01:11:04;101632.38;;;19.72
18161;BMP280;9205;52.032;4.314;2022-08-21T01:13:37;101634.94;;;19.72
18161;BMP280;9205;52.032;4.314;2022-08-21T01:16:13;101632.41;;;19.71
18161;BMP280;9205;52.032;4.314;2022-08-21T01:18:43;101629.94;;;19.69
18161;BMP280;9205;52.032;4.314;2022-08-21T01:21:17;101628.25;;;19.68
18161;BMP280;9205;52.032;4.314;2022-08-21T01:23:50;101629.16;;;19.67
18161;BMP280;9205;52.032;4.314;2022-08-21T01:26:23;101626.56;;;19.67
18161;BMP280;9205;52.032;4.314;2022-08-21T01:28:59;101626.72;;;19.65
18161;BMP280;9205;52.032;4.314;2022-08-21T01:31:29;101635.38;;;19.64
18161;BMP280;9205;52.032;4.314;2022-08-21T01:33:59;101629.56;;;19.59
18161;BMP280;9205;52.032;4.314;2022-08-21T01:36:29;101627.06;;;19.57
18161;BMP280;9205;52.032;4.314;2022-08-21T01:38:57;101625.56;;;19.53
18161;BMP280;9205;52.032;4.314;2022-08-21T01:41:24;101631.53;;;19.54
18161;BMP280;9205;52.032;4.314;2022-08-21T01:43:51;101621.31;;;19.52
18161;BMP280;9205;52.032;4.314;2022-08-21T01:46:19;101627.56;;;19.47
18161;BMP280;9205;52.032;4.314;2022-08-21T01:48:46;101632.03;;;19.43
18161;BMP280;9205;52.032;4.314;2022-08-21T01:51:13;101619.16;;;19.43
18161;BMP280;9205;52.032;4.314;2022-08-21T01:53:42;101627.97;;;19.38
18161;BMP280;9205;52.032;4.314;2022-08-21T01:56:14;101623.03;;;19.33
18161;BMP280;9205;52.032;4.314;2022-08-21T01:58:45;101624.00;;;19.31
18161;BMP280;9205;52.032;4.314;2022-08-21T02:01:13;101620.66;;;19.29
18161;BMP280;9205;52.032;4.314;2022-08-21T02:03:41;101619.06;;;19.26
18161;BMP280;9205;52.032;4.314;2022-08-21T02:06:14;101625.19;;;19.24
18161;BMP280;9205;52.032;4.314;2022-08-21T02:08:46;101615.09;;;19.19
18161;BMP280;9205;52.032;4.314;2022-08-21T02:11:13;101611.69;;;19.19
18161;BMP280;9205;52.032;4.314;2022-08-21T02:13:40;101611.75;;;19.17
18161;BMP280;9205;52.032;4.314;2022-08-21T02:16:08;101606.66;;;19.16
18161;BMP280;9205;52.032;4.314;2022-08-21T02:18:36;101610.13;;;19.15
18161;BMP280;9205;52.032;4.314;2022-08-21T02:21:04;101615.28;;;19.15
18161;BMP280;9205;52.032;4.314;2022-08-21T02:23:33;101609.31;;;19.14
18161;BMP280;9205;52.032;4.314;2022-08-21T02:26:05;101611.91;;;19.14
18161;BMP280;9205;52.032;4.314;2022-08-21T02:28:33;101613.81;;;19.09
18161;BMP280;9205;52.032;4.314;2022-08-21T02:31:01;101610.59;;;19.04
18161;BMP280;9205;52.032;4.314;2022-08-21T02:33:28;101605.50;;;19.03
18161;BMP280;9205;52.032;4.314;2022-08-21T02:35:56;101600.50;;;19.00
18161;BMP280;9205;52.032;4.314;2022-08-21T02:38:28;101607.38;;;18.99
18161;BMP280;9205;52.032;4.314;2022-08-21T02:40:57;101603.06;;;19.00
18161;BMP280;9205;52.032;4.314;2022-08-21T02:43:27;101610.78;;;19.00
18161;BMP280;9205;52.032;4.314;2022-08-21T02:45:56;101603.19;;;18.97
18161;BMP280;9205;52.032;4.314;2022-08-21T02:48:27;101604.88;;;18.98
18161;BMP280;9205;52.032;4.314;2022-08-21T02:50:58;101603.19;;;18.97
18161;BMP280;9205;52.032;4.314;2022-08-21T02:53:27;101605.00;;;18.95
18161;BMP280;9205;52.032;4.314;2022-08-21T02:55:56;101603.34;;;18.94
18161;BMP280;9205;52.032;4.314;2022-08-21T02:58:30;101606.19;;;18.88
18161;BMP280;9205;52.032;4.314;2022-08-21T03:00:58;101600.19;;;18.87
18161;BMP280;9205;52.032;4.314;2022-08-21T03:03:26;101597.69;;;18.86
18161;BMP280;9205;52.032;4.314;2022-08-21T03:05:54;101601.03;;;18.88
18161;BMP280;9205;52.032;4.314;2022-08-21T03:08:22;101598.50;;;18.86
18161;BMP280;9205;52.032;4.314;2022-08-21T03:10:52;101595.19;;;18.85
18161;BMP280;9205;52.032;4.314;2022-08-21T03:13:21;101588.22;;;18.86
18161;BMP280;9205;52.032;4.314;2022-08-21T03:15:50;101583.13;;;18.85
18161;BMP280;9205;52.032;4.314;2022-08-21T03:18:17;101591.75;;;18.84
18161;BMP280;9205;52.032;4.314;2022-08-21T03:20:46;101590.16;;;18.82
18161;BMP280;9205;52.032;4.314;2022-08-21T03:23:15;101579.00;;;18.81
18161;BMP280;9205;52.032;4.314;2022-08-21T03:25:45;101580.84;;;18.79
18161;BMP280;9205;52.032;4.314;2022-08-21T03:28:16;101584.38;;;18.77
18161;BMP280;9205;52.032;4.314;2022-08-21T03:30:46;101575.97;;;18.73
18161;BMP280;9205;52.032;4.314;2022-08-21T03:33:16;101580.13;;;18.76
18161;BMP280;9205;52.032;4.314;2022-08-21T03:35:58;101567.25;;;18.76
18161;BMP280;9205;52.032;4.314;2022-08-21T03:38:28;101570.75;;;18.75
18161;BMP280;9205;52.032;4.314;2022-08-21T03:40:56;101567.47;;;18.71
18161;BMP280;9205;52.032;4.314;2022-08-21T03:43:23;101569.25;;;18.69
18161;BMP280;9205;52.032;4.314;2022-08-21T03:45:51;101570.16;;;18.68
18161;BMP280;9205;52.032;4.314;2022-08-21T03:48:20;101571.06;;;18.67
18161;BMP280;9205;52.032;4.314;2022-08-21T03:50:47;101563.34;;;18.67
18161;BMP280;9205;52.032;4.314;2022-08-21T03:53:16;101572.88;;;18.65
18161;BMP280;9205;52.032;4.314;2022-08-21T03:55:45;101573.00;;;18.62
18161;BMP280;9205;52.032;4.314;2022-08-21T03:58:13;101567.84;;;18.62
18161;BMP280;9205;52.032;4.314;2022-08-21T04:00:40;101563.53;;;18.63
18161;BMP280;9205;52.032;4.314;2022-08-21T04:03:07;101567.06;;;18.60
18161;BMP280;9205;52.032;4.314;2022-08-21T04:05:36;101565.59;;;18.55
18161;BMP280;9205;52.032;4.314;2022-08-21T04:08:05;101565.78;;;18.50
18161;BMP280;9205;52.032;4.314;2022-08-21T04:10:36;101567.34;;;18.54
18161;BMP280;9205;52.032;4.314;2022-08-21T04:13:05;101564.69;;;18.56
18161;BMP280;9205;52.032;4.314;2022-08-21T04:15:34;101570.69;;;18.56
18161;BMP280;9205;52.032;4.314;2022-08-21T04:18:03;101571.59;;;18.55
18161;BMP280;9205;52.032;4.314;2022-08-21T04:20:30;101572.41;;;18.56
18161;BMP280;9205;52.032;4.314;2022-08-21T04:22:59;101582.72;;;18.56
18161;BMP280;9205;52.032;4.314;2022-08-21T04:25:26;101592.19;;;18.55
18161;BMP280;9205;52.032;4.314;2022-08-21T04:27:54;101592.44;;;18.49
18161;BMP280;9205;52.032;4.314;2022-08-21T04:30:22;101593.25;;;18.50
18161;BMP280;9205;52.032;4.314;2022-08-21T04:32:50;101595.75;;;18.51
18161;BMP280;9205;52.032;4.314;2022-08-21T04:35:21;101600.78;;;18.54
18161;BMP280;9205;52.032;4.314;2022-08-21T04:37:49;101587.78;;;18.37
18161;BMP280;9205;52.032;4.314;2022-08-21T04:40:20;101600.47;;;18.42
18161;BMP280;9205;52.032;4.314;2022-08-21T04:42:50;101597.97;;;18.40
18161;BMP280;9205;52.032;4.314;2022-08-21T04:45:20;101604.91;;;18.38
18161;BMP280;9205;52.032;4.314;2022-08-21T04:47:50;101608.19;;;18.42
18161;BMP280;9205;52.032;4.314;2022-08-21T04:50:18;101609.66;;;18.47
18161;BMP280;9205;52.032;4.314;2022-08-21T04:53:03;101607.16;;;18.46
18161;BMP280;9205;52.032;4.314;2022-08-21T04:55:32;101600.19;;;18.48
18161;BMP280;9205;52.032;4.314;2022-08-21T04:58:00;101611.97;;;18.53
18161;BMP280;9205;52.032;4.314;2022-08-21T05:00:27;101610.25;;;18.54
18161;BMP280;9205;52.032;4.314;2022-08-21T05:02:56;101615.34;;;18.55
18161;BMP280;9205;52.032;4.314;2022-08-21T05:05:27;101615.34;;;18.55
18161;BMP280;9205;52.032;4.314;2022-08-21T05:07:57;101617.75;;;18.58
18161;BMP280;9205;52.032;4.314;2022-08-21T05:10:25;101616.13;;;18.57
18161;BMP280;9205;52.032;4.314;2022-08-21T05:12:54;101612.88;;;18.52
18161;BMP280;9205;52.032;4.314;2022-08-21T05:15:22;101603.19;;;18.59
18161;BMP280;9205;52.032;4.314;2022-08-21T05:17:49;101618.41;;;18.63
18161;BMP280;9205;52.032;4.314;2022-08-21T05:20:17;101619.94;;;18.67
18161;BMP280;9205;52.032;4.314;2022-08-21T05:22:44;101617.44;;;18.66
18161;BMP280;9205;52.032;4.314;2022-08-21T05:25:11;101597.69;;;18.66
18161;BMP280;9205;52.032;4.314;2022-08-21T05:27:38;101610.56;;;18.66
18161;BMP280;9205;52.032;4.314;2022-08-21T05:30:09;101608.06;;;18.65
18161;BMP280;9205;52.032;4.314;2022-08-21T05:32:37;101606.97;;;18.70
18161;BMP280;9205;52.032;4.314;2022-08-21T05:35:06;101598.34;;;18.71
18161;BMP280;9205;52.032;4.314;2022-08-21T05:37:34;101605.91;;;18.74
18161;BMP280;9205;52.032;4.314;2022-08-21T05:40:04;101610.06;;;18.78
18161;BMP280;9205;52.032;4.314;2022-08-21T05:42:32;101595.31;;;18.82
18161;BMP280;9205;52.032;4.314;2022-08-21T05:44:59;101596.13;;;18.82
18161;BMP280;9205;52.032;4.314;2022-08-21T05:47:28;101600.53;;;18.80
18161;BMP280;9205;52.032;4.314;2022-08-21T05:49:55;101597.38;;;18.74
18161;BMP280;9205;52.032;4.314;2022-08-21T05:52:22;101599.13;;;18.73
18161;BMP280;9205;52.032;4.314;2022-08-21T05:54:50;101603.34;;;18.74
18161;BMP280;9205;52.032;4.314;2022-08-21T05:57:20;101603.34;;;18.74
18161;BMP280;9205;52.032;4.314;2022-08-21T05:59:47;101602.53;;;18.74
18161;BMP280;9205;52.032;4.314;2022-08-21T06:02:16;101609.16;;;18.79
18161;BMP280;9205;52.032;4.314;2022-08-21T06:04:47;101613.25;;;18.83
18161;BMP280;9205;52.032;4.314;2022-08-21T06:07:15;101612.28;;;18.85
18161;BMP280;9205;52.032;4.314;2022-08-21T06:09:42;101613.13;;;18.86
18161;BMP280;9205;52.032;4.314;2022-08-21T06:12:12;101605.13;;;18.92
18161;BMP280;9205;52.032;4.314;2022-08-21T06:14:41;101605.91;;;18.94
18161;BMP280;9205;52.032;4.314;2022-08-21T06:17:11;101606.59;;;18.97
18161;BMP280;9205;52.032;4.314;2022-08-21T06:19:44;101609.25;;;18.96
18161;BMP280;9205;52.032;4.314;2022-08-21T06:22:12;101603.19;;;18.97
18161;BMP280;9205;52.032;4.314;2022-08-21T06:24:39;101603.06;;;19.00
18161;BMP280;9205;52.032;4.314;2022-08-21T06:27:07;101605.34;;;19.06
18161;BMP280;9205;52.032;4.314;2022-08-21T06:29:35;101597.59;;;19.07
18161;BMP280;9205;52.032;4.314;2022-08-21T06:32:04;101610.22;;;19.13
18161;BMP280;9205;52.032;4.314;2022-08-21T06:34:35;101611.00;;;19.15
18161;BMP280;9205;52.032;4.314;2022-08-21T06:37:04;101610.13;;;19.15
18161;BMP280;9205;52.032;4.314;2022-08-21T06:39:33;101615.88;;;19.21
18161;BMP280;9205;52.032;4.314;2022-08-21T06:42:00;101607.94;;;19.26
18161;BMP280;9205;52.032;4.314;2022-08-21T06:44:29;101607.66;;;19.32
18161;BMP280;9205;52.032;4.314;2022-08-21T06:46:56;101605.78;;;19.35
18161;BMP280;9205;52.032;4.314;2022-08-21T06:49:23;101606.34;;;19.42
18161;BMP280;9205;52.032;4.314;2022-08-21T06:51:50;101606.66;;;19.53
18161;BMP280;9205;52.032;4.314;2022-08-21T06:54:17;101608.00;;;19.61
18161;BMP280;9205;52.032;4.314;2022-08-21T06:56:46;101602.69;;;19.64
18161;BMP280;9205;52.032;4.314;2022-08-21T06:59:16;101608.47;;;19.69
18161;BMP280;9205;52.032;4.314;2022-08-21T07:01:43;101607.19;;;19.77
18161;BMP280;9205;52.032;4.314;2022-08-21T07:04:10;101605.44;;;19.78
18161;BMP280;9205;52.032;4.314;2022-08-21T07:06:38;101602.81;;;19.79
18161;BMP280;9205;52.032;4.314;2022-08-21T07:09:07;101611.94;;;19.86
18161;BMP280;9205;52.032;4.314;2022-08-21T07:11:37;101609.84;;;19.94
18161;BMP280;9205;52.032;4.314;2022-08-21T07:14:06;101606.38;;;19.95
18161;BMP280;9205;52.032;4.314;2022-08-21T07:16:33;101608.94;;;19.95
18161;BMP280;9205;52.032;4.314;2022-08-21T07:19:00;101612.91;;;20.02
18161;BMP280;9205;52.032;4.314;2022-08-21T07:21:28;101606.63;;;20.08
18161;BMP280;9205;52.032;4.314;2022-08-21T07:23:55;101605.47;;;20.13
18161;BMP280;9205;52.032;4.314;2022-08-21T07:26:23;101611.47;;;20.14
18161;BMP280;9205;52.032;4.314;2022-08-21T07:28:52;101602.53;;;20.21
18161;BMP280;9205;52.032;4.314;2022-08-21T07:31:24;101599.50;;;20.30
18161;BMP280;9205;52.032;4.314;2022-08-21T07:33:52;101600.31;;;20.47
18161;BMP280;9205;52.032;4.314;2022-08-21T07:36:20;101604.84;;;20.59
18161;BMP280;9205;52.032;4.314;2022-08-21T07:38:47;101598.25;;;20.70
18161;BMP280;9205;52.032;4.314;2022-08-21T07:41:20;101603.81;;;20.80
18161;BMP280;9205;52.032;4.314;2022-08-21T07:43:47;101604.50;;;20.83
18161;BMP280;9205;52.032;4.314;2022-08-21T07:46:15;101604.16;;;20.89
18161;BMP280;9205;52.032;4.314;2022-08-21T07:48:44;101608.19;;;20.95
18161;BMP280;9205;52.032;4.314;2022-08-21T07:51:13;101606.88;;;21.03
18161;BMP280;9205;52.032;4.314;2022-08-21T07:53:46;101611.47;;;21.14
18161;BMP280;9205;52.032;4.314;2022-08-21T07:56:14;101604.09;;;21.23
18161;BMP280;9205;52.032;4.314;2022-08-21T07:58:41;101608.06;;;21.28
18161;BMP280;9205;52.032;4.314;2022-08-21T08:01:09;101587.56;;;21.41
18161;BMP280;9205;52.032;4.314;2022-08-21T08:03:36;101592.41;;;21.47
18161;BMP280;9205;52.032;4.314;2022-08-21T08:06:07;101584.13;;;21.57
18161;BMP280;9205;52.032;4.314;2022-08-21T08:08:38;101584.94;;;21.73
18161;BMP280;9205;52.032;4.314;2022-08-21T08:11:07;101584.00;;;21.90
18161;BMP280;9205;52.032;4.314;2022-08-21T08:13:39;101586.97;;;21.98
18161;BMP280;9205;52.032;4.314;2022-08-21T08:16:07;101584.28;;;21.99
18161;BMP280;9205;52.032;4.314;2022-08-21T08:18:34;101593.88;;;21.97
18161;BMP280;9205;52.032;4.314;2022-08-21T08:21:02;101599.59;;;21.88
18161;BMP280;9205;52.032;4.314;2022-08-21T08:23:32;101602.25;;;21.87
18161;BMP280;9205;52.032;4.314;2022-08-21T08:26:00;101593.25;;;21.78
18161;BMP280;9205;52.032;4.314;2022-08-21T08:28:29;101602.28;;;21.71
18161;BMP280;9205;52.032;4.314;2022-08-21T08:30:58;101602.28;;;21.71
18161;BMP280;9205;52.032;4.314;2022-08-21T08:33:25;101600.63;;;21.70
18161;BMP280;9205;52.032;4.314;2022-08-21T08:35:54;101599.69;;;21.71
18161;BMP280;9205;52.032;4.314;2022-08-21T08:38:24;101597.63;;;21.62
18161;BMP280;9205;52.032;4.314;2022-08-21T08:41:01;101601.47;;;21.55
18161;BMP280;9205;52.032;4.314;2022-08-21T08:43:32;101597.19;;;21.54
18161;BMP280;9205;52.032;4.314;2022-08-21T08:46:06;101597.97;;;21.56
18161;BMP280;9205;52.032;4.314;2022-08-21T08:48:47;101599.44;;;21.60
18161;BMP280;9205;52.032;4.314;2022-08-21T08:51:23;101595.28;;;21.73
18161;BMP280;9205;52.032;4.314;2022-08-21T08:53:56;101592.50;;;21.76
18161;BMP280;9205;52.032;4.314;2022-08-21T08:56:31;101596.94;;;21.74
18161;BMP280;9205;52.032;4.314;2022-08-21T08:59:07;101601.03;;;21.78
18161;BMP280;9205;52.032;4.314;2022-08-21T09:01:35;101604.19;;;21.83
18161;BMP280;9205;52.032;4.314;2022-08-21T09:04:03;101589.97;;;21.90
18161;BMP280;9205;52.032;4.314;2022-08-21T09:06:56;101595.56;;;21.98
18161;BMP280;9205;52.032;4.314;2022-08-21T09:09:46;101601.88;;;22.08
18161;BMP280;9205;52.032;4.314;2022-08-21T09:12:33;101602.38;;;22.14
18161;BMP280;9205;52.032;4.314;2022-08-21T09:15:14;101597.38;;;22.11
18161;BMP280;9205;52.032;4.314;2022-08-21T09:18:08;101601.38;;;22.17
18161;BMP280;9205;52.032;4.314;2022-08-21T09:20:48;101602.03;;;22.20
18161;BMP280;9205;52.032;4.314;2022-08-21T09:23:35;101606.69;;;22.29
18161;BMP280;9205;52.032;4.314;2022-08-21T09:26:12;101608.38;;;22.30
18161;BMP280;9205;52.032;4.314;2022-08-21T09:28:43;101613.59;;;22.29
18161;BMP280;9205;52.032;4.314;2022-08-21T09:31:21;101604.31;;;22.40
18161;BMP280;9205;52.032;4.314;2022-08-21T09:33:49;101612.03;;;22.42
18161;BMP280;9205;52.032;4.314;2022-08-21T09:36:40;101615.91;;;22.49
18161;BMP280;9205;52.032;4.314;2022-08-21T09:39:11;101613.31;;;22.49
18161;BMP280;9205;52.032;4.314;2022-08-21T09:41:40;101618.13;;;22.55
18161;BMP280;9205;52.032;4.314;2022-08-21T09:44:09;101614.63;;;22.56
18161;BMP280;9205;52.032;4.314;2022-08-21T09:46:36;101619.63;;;22.59
18161;BMP280;9205;52.032;4.314;2022-08-21T09:49:04;101613.34;;;22.63
18161;BMP280;9205;52.032;4.314;2022-08-21T09:51:35;101617.59;;;22.64
18161;BMP280;9205;52.032;4.314;2022-08-21T09:54:18;101613.72;;;22.57
18161;BMP280;9205;52.032;4.314;2022-08-21T09:56:55;101620.91;;;22.52
18161;BMP280;9205;52.032;4.314;2022-08-21T09:59:45;101618.31;;;22.52
18161;BMP280;9205;52.032;4.314;2022-08-21T10:02:26;101613.13;;;22.52
18161;BMP280;9205;52.032;4.314;2022-08-21T10:04:57;101606.88;;;22.56
18161;BMP280;9205;52.032;4.314;2022-08-21T10:07:31;101603.91;;;22.62
18161;BMP280;9205;52.032;4.314;2022-08-21T10:10:03;101586.69;;;22.61
18161;BMP280;9205;52.032;4.314;2022-08-21T10:12:43;101594.03;;;22.68
18161;BMP280;9205;52.032;4.314;2022-08-21T10:15:24;101601.31;;;22.76
18161;BMP280;9205;52.032;4.314;2022-08-21T10:18:06;101606.88;;;22.70
18161;BMP280;9205;52.032;4.314;2022-08-21T10:20:50;101603.91;;;22.62
18161;BMP280;9205;52.032;4.314;2022-08-21T10:23:45;101608.16;;;22.63
18161;BMP280;9205;52.032;4.314;2022-08-21T10:26:32;101610.75;;;22.63
18161;BMP280;9205;52.032;4.314;2022-08-21T10:29:11;101590.97;;;22.62
18161;BMP280;9205;52.032;4.314;2022-08-21T10:31:57;101596.03;;;22.63
18161;BMP280;9205;52.032;4.314;2022-08-21T10:34:40;101599.66;;;22.61
18161;BMP280;9205;52.032;4.314;2022-08-21T10:37:26;101595.22;;;22.63
18161;BMP280;9205;52.032;4.314;2022-08-21T10:40:14;101596.78;;;22.65
18161;BMP280;9205;52.032;4.314;2022-08-21T10:43:01;101601.53;;;22.73
18161;BMP280;9205;52.032;4.314;2022-08-21T10:45:46;101597.16;;;22.73
18161;BMP280;9205;52.032;4.314;2022-08-21T10:48:27;101593.56;;;22.76
18161;BMP280;9205;52.032;4.314;2022-08-21T10:51:05;101605.47;;;22.78
18161;BMP280;9205;52.032;4.314;2022-08-21T10:53:56;101599.41;;;22.93
18161;BMP280;9205;52.032;4.314;2022-08-21T10:56:32;101596.28;;;23.16
18161;BMP280;9205;52.032;4.314;2022-08-21T10:59:23;101595.31;;;23.45
18161;BMP280;9205;52.032;4.314;2022-08-21T11:01:59;101595.03;;;23.49
18161;BMP280;9205;52.032;4.314;2022-08-21T11:04:36;101599.00;;;23.55
18161;BMP280;9205;52.032;4.314;2022-08-21T11:07:10;101603.72;;;23.48
18161;BMP280;9205;52.032;4.314;2022-08-21T11:09:43;101610.44;;;23.65
18161;BMP280;9205;52.032;4.314;2022-08-21T11:12:24;101603.13;;;23.97
18161;BMP280;9205;52.032;4.314;2022-08-21T11:15:01;101609.28;;;24.09
18161;BMP280;9205;52.032;4.314;2022-08-21T11:17:36;101605.28;;;23.91
18161;BMP280;9205;52.032;4.314;2022-08-21T11:20:13;101605.03;;;24.08
18161;BMP280;9205;52.032;4.314;2022-08-21T11:22:49;101610.56;;;25.17
18161;BMP280;9205;52.032;4.314;2022-08-21T11:25:27;101614.03;;;25.40
18161;BMP280;9205;52.032;4.314;2022-08-21T11:28:03;101610.69;;;26.21
18161;BMP280;9205;52.032;4.314;2022-08-21T11:30:48;101621.00;;;26.22
18161;BMP280;9205;52.032;4.314;2022-08-21T11:33:37;101624.13;;;25.32
18161;BMP280;9205;52.032;4.314;2022-08-21T11:36:21;101627.50;;;24.97
18161;BMP280;9205;52.032;4.314;2022-08-21T11:38:59;101625.22;;;24.68
18161;BMP280;9205;52.032;4.314;2022-08-21T11:41:37;101626.50;;;24.36
18161;BMP280;9205;52.032;4.314;2022-08-21T11:44:18;101628.88;;;24.27
18161;BMP280;9205;52.032;4.314;2022-08-21T11:46:58;101629.66;;;24.53
18161;BMP280;9205;52.032;4.314;2022-08-21T11:49:57;101628.91;;;24.51
18161;BMP280;9205;52.032;4.314;2022-08-21T11:52:36;101614.50;;;24.48
18161;BMP280;9205;52.032;4.314;2022-08-21T11:55:08;101621.25;;;24.50
18161;BMP280;9205;52.032;4.314;2022-08-21T11:57:51;101613.28;;;24.65
18161;BMP280;9205;52.032;4.314;2022-08-21T12:00:26;101623.53;;;24.54
18161;BMP280;9205;52.032;4.314;2022-08-21T12:02:59;101621.94;;;24.40
18161;BMP280;9205;52.032;4.314;2022-08-21T12:05:39;101629.81;;;24.26
18161;BMP280;9205;52.032;4.314;2022-08-21T12:08:15;101622.41;;;24.20
18161;BMP280;9205;52.032;4.314;2022-08-21T12:11:04;101625.31;;;24.54
18161;BMP280;9205;52.032;4.314;2022-08-21T12:13:35;101617.44;;;24.93
18161;BMP280;9205;52.032;4.314;2022-08-21T12:16:08;101634.47;;;25.22
18161;BMP280;9205;52.032;4.314;2022-08-21T12:18:36;101615.16;;;25.49
18161;BMP280;9205;52.032;4.314;2022-08-21T12:21:21;101613.34;;;25.62
18161;BMP280;9205;52.032;4.314;2022-08-21T12:24:03;101615.41;;;25.82
18161;BMP280;9205;52.032;4.314;2022-08-21T12:26:35;101614.50;;;25.94
18161;BMP280;9205;52.032;4.314;2022-08-21T12:29:14;101622.56;;;26.02
18161;BMP280;9205;52.032;4.314;2022-08-21T12:32:23;101628.97;;;25.98
18161;BMP280;9205;52.032;4.314;2022-08-21T12:34:55;101624.47;;;25.76
18161;BMP280;9205;52.032;4.314;2022-08-21T12:37:35;101634.75;;;25.42
18161;BMP280;9205;52.032;4.314;2022-08-21T12:40:24;101632.38;;;25.27
18161;BMP280;9205;52.032;4.314;2022-08-21T12:42:55;101636.22;;;25.21
18161;BMP280;9205;52.032;4.314;2022-08-21T12:45:31;101630.81;;;25.24
18161;BMP280;9205;52.032;4.314;2022-08-21T12:48:02;101627.09;;;25.16
18161;BMP280;9205;52.032;4.314;2022-08-21T12:50:41;101631.88;;;25.09
18161;BMP280;9205;52.032;4.314;2022-08-21T12:53:17;101637.38;;;25.17
18161;BMP280;9205;52.032;4.314;2022-08-21T12:55:50;101633.56;;;25.10
18161;BMP280;9205;52.032;4.314;2022-08-21T12:58:18;101632.50;;;25.13
18161;BMP280;9205;52.032;4.314;2022-08-21T13:00:54;101639.66;;;25.22
18161;BMP280;9205;52.032;4.314;2022-08-21T13:03:23;101634.16;;;25.26
18161;BMP280;9205;52.032;4.314;2022-08-21T13:05:51;101630.72;;;25.26
18161;BMP280;9205;52.032;4.314;2022-08-21T13:08:22;101639.16;;;25.17
18161;BMP280;9205;52.032;4.314;2022-08-21T13:11:01;101643.00;;;25.11
18161;BMP280;9205;52.032;4.314;2022-08-21T13:13:30;101640.28;;;25.00
18161;BMP280;9205;52.032;4.314;2022-08-21T13:16:00;101645.09;;;24.81
18161;BMP280;9205;52.032;4.314;2022-08-21T13:18:31;101644.44;;;24.65
18161;BMP280;9205;52.032;4.314;2022-08-21T13:21:06;101649.94;;;24.61
18161;BMP280;9205;52.032;4.314;2022-08-21T13:23:34;101641.09;;;24.63
18161;BMP280;9205;52.032;4.314;2022-08-21T13:26:16;101639.03;;;24.68
18161;BMP280;9205;52.032;4.314;2022-08-21T13:28:44;101629.88;;;24.75
18161;BMP280;9205;52.032;4.314;2022-08-21T13:31:20;101629.06;;;24.87
18161;BMP280;9205;52.032;4.314;2022-08-21T13:33:54;101630.31;;;24.82
18161;BMP280;9205;52.032;4.314;2022-08-21T13:36:27;101625.00;;;24.83
18161;BMP280;9205;52.032;4.314;2022-08-21T13:38:56;101630.00;;;24.86
18161;BMP280;9205;52.032;4.314;2022-08-21T13:41:28;101638.50;;;24.63
18161;BMP280;9205;52.032;4.314;2022-08-21T13:44:01;101638.38;;;24.52
18161;BMP280;9205;52.032;4.314;2022-08-21T13:46:35;101644.56;;;24.38
18161;BMP280;9205;52.032;4.314;2022-08-21T13:49:06;101640.91;;;24.28
18161;BMP280;9205;52.032;4.314;2022-08-21T13:51:34;101643.06;;;24.21
18161;BMP280;9205;52.032;4.314;2022-08-21T13:54:14;101643.59;;;24.26
18161;BMP280;9205;52.032;4.314;2022-08-21T13:56:45;101644.13;;;24.19
18161;BMP280;9205;52.032;4.314;2022-08-21T13:59:27;101640.59;;;24.20
18161;BMP280;9205;52.032;4.314;2022-08-21T14:01:59;101637.03;;;24.08
18161;BMP280;9205;52.032;4.314;2022-08-21T14:04:35;101635.53;;;24.04
18161;BMP280;9205;52.032;4.314;2022-08-21T14:07:16;101636.56;;;24.02
18161;BMP280;9205;52.032;4.314;2022-08-21T14:09:46;101639.34;;;23.99
18161;BMP280;9205;52.032;4.314;2022-08-21T14:12:24;101640.91;;;23.89
18161;BMP280;9205;52.032;4.314;2022-08-21T14:14:55;101641.19;;;23.84
18161;BMP280;9205;52.032;4.314;2022-08-21T14:17:30;101649.16;;;23.81
18161;BMP280;9205;52.032;4.314;2022-08-21T14:19:57;101629.63;;;23.76
18161;BMP280;9205;52.032;4.314;2022-08-21T14:22:37;101630.53;;;23.75
18161;BMP280;9205;52.032;4.314;2022-08-21T14:25:09;101640.16;;;23.73
18161;BMP280;9205;52.032;4.314;2022-08-21T14:27:49;101639.63;;;23.82
18161;BMP280;9205;52.032;4.314;2022-08-21T14:30:21;101645.00;;;23.79
18161;BMP280;9205;52.032;4.314;2022-08-21T14:32:49;101637.97;;;23.81
18161;BMP280;9205;52.032;4.314;2022-08-21T14:35:16;101635.16;;;23.84
18161;BMP280;9205;52.032;4.314;2022-08-21T14:37:44;101637.91;;;23.95